sensor_id;sensor_type;location;lat;lon;timestamp;pressure;altitude;pressure_sealevel;temperature;humidity
71195;BME280;58908;51.426;7.714;2023-04-28T00:00:09;99570.66;;;8.90;86.51
71195;BME280;58908;51.426;7.714;2023-04-28T00:02:35;99565.25;;;9.09;84.43
71195;BME280;58908;51.426;7.714;2023-04-28T00:05:02;99560.59;;;9.29;81.17
71195;BME280;58908;51.426;7.714;2023-04-28T00:07:28;99563.91;;;9.48;79.77
71195;BME280;58908;51.426;7.714;2023-04-28T00:09:54;99554.38;;;9.61;78.68
71195;BME280;58908;51.426;7.714;2023-04-28T00:12:21;99545.22;;;9.52;79.76
71195;BME280;58908;51.426;7.714;2023-04-28T00:14:49;99545.78;;;9.73;77.55
71195;BME280;58908;51.426;7.714;2023-04-28T00:17:15;99536.25;;;9.86;75.94
71195;BME280;58908;51.426;7.714;2023-04-28T00:19:42;99528.16;;;10.04;74.32
71195;BME280;58908;51.426;7.714;2023-04-28T00:22:09;99520.94;;;9.92;75.95
71195;BME280;58908;51.426;7.714;2023-04-28T00:24:35;99527.41;;;9.87;76.91
71195;BME280;58908;51.426;7.714;2023-04-28T00:27:01;99523.03;;;10.01;74.72
71195;BME280;58908;51.426;7.714;2023-04-28T00:29:28;99523.94;;;10.02;75.14
71195;BME280;58908;51.426;7.714;2023-04-28T00:31:56;99522.28;;;9.99;76.04
71195;BME280;58908;51.426;7.714;2023-04-28T00:34:22;99526.94;;;10.10;76.11
71195;BME280;58908;51.426;7.714;2023-04-28T00:36:48;99513.41;;;10.16;77.00
71195;BME280;58908;51.426;7.714;2023-04-28T00:39:14;99512.47;;;10.17;77.37
71195;BME280;58908;51.426;7.714;2023-04-28T00:41:42;99508.50;;;10.10;78.49
71195;BME280;58908;51.426;7.714;2023-04-28T00:44:08;99501.75;;;10.20;76.86
71195;BME280;58908;51.426;7.714;2023-04-28T00:46:35;99499.22;;;10.18;77.67
71195;BME280;58908;51.426;7.714;2023-04-28T00:49:02;99498.00;;;10.24;77.17
71195;BME280;58908;51.426;7.714;2023-04-28T00:51:29;99495.72;;;10.18;79.22
71195;BME280;58908;51.426;7.714;2023-04-28T00:53:57;99498.53;;;10.15;80.19
71195;BME280;58908;51.426;7.714;2023-04-28T00:56:24;99496.25;;;10.09;82.05
71195;BME280;58908;51.426;7.714;2023-04-28T00:58:51;99490.84;;;9.96;84.38
71195;BME280;58908;51.426;7.714;2023-04-28T01:01:17;99500.72;;;9.93;86.55
71195;BME280;58908;51.426;7.714;2023-04-28T01:03:44;99498.34;;;9.88;89.73
71195;BME280;58908;51.426;7.714;2023-04-28T01:06:11;99493.53;;;9.81;96.04
71195;BME280;58908;51.426;7.714;2023-04-28T01:08:38;99486.91;;;9.74;99.17
71195;BME280;58908;51.426;7.714;2023-04-28T01:11:06;99484.69;;;9.82;99.76
71195;BME280;58908;51.426;7.714;2023-04-28T01:13:34;99487.59;;;9.77;100.00
71195;BME280;58908;51.426;7.714;2023-04-28T01:16:01;99482.25;;;9.79;100.00
71195;BME280;58908;51.426;7.714;2023-04-28T01:18:27;99484.75;;;9.80;100.00
71195;BME280;58908;51.426;7.714;2023-04-28T01:20:53;99496.25;;;9.79;100.00
71195;BME280;58908;51.426;7.714;2023-04-28T01:23:21;99490.00;;;9.66;100.00
71195;BME280;58908;51.426;7.714;2023-04-28T01:25:49;99498.22;;;9.60;100.00
71195;BME280;58908;51.426;7.714;2023-04-28T01:28:15;99499.72;;;9.50;100.00
71195;BME280;58908;51.426;7.714;2023-04-28T01:30:41;99491.91;;;9.49;100.00
71195;BME280;58908;51.426;7.714;2023-04-28T01:33:07;99495.66;;;9.45;100.00
71195;BME280;58908;51.426;7.714;2023-04-28T01:35:33;99494.03;;;9.43;100.00
71195;BME280;58908;51.426;7.714;2023-04-28T01:38:00;99492.66;;;9.36;100.00
71195;BME280;58908;51.426;7.714;2023-04-28T01:40:26;99484.78;;;9.36;100.00
71195;BME280;58908;51.426;7.714;2023-04-28T01:42:54;99483.06;;;9.35;100.00
71195;BME280;58908;51.426;7.714;2023-04-28T01:45:20;99480.44;;;9.50;100.00
71195;BME280;58908;51.426;7.714;2023-04-28T01:47:46;99475.41;;;9.45;100.00
71195;BME280;58908;51.426;7.714;2023-04-28T01:50:13;99476.84;;;9.51;100.00
71195;BME280;58908;51.426;7.714;2023-04-28T01:52:39;99468.88;;;9.52;100.00
71195;BME280;58908;51.426;7.714;2023-04-28T01:55:05;99477.47;;;9.41;100.00
71195;BME280;58908;51.426;7.714;2023-04-28T01:57:32;99480.19;;;9.24;100.00
71195;BME280;58908;51.426;7.714;2023-04-28T02:00:00;99478.25;;;9.12;100.00
71195;BME280;58908;51.426;7.714;2023-04-28T02:02:27;99480.97;;;8.95;100.00
71195;BME280;58908;51.426;7.714;2023-04-28T02:04:53;99475.53;;;8.98;100.00
71195;BME280;58908;51.426;7.714;2023-04-28T02:07:22;99474.94;;;8.93;100.00
71195;BME280;58908;51.426;7.714;2023-04-28T02:09:48;99479.69;;;8.86;100.00
71195;BME280;58908;51.426;7.714;2023-04-28T02:12:14;99478.47;;;8.76;100.00
71195;BME280;58908;51.426;7.714;2023-04-28T02:14:41;99477.13;;;8.69;100.00
71195;BME280;58908;51.426;7.714;2023-04-28T02:17:09;99479.06;;;8.66;100.00
71195;BME280;58908;51.426;7.714;2023-04-28T02:19:35;99476.50;;;8.64;100.00
71195;BME280;58908;51.426;7.714;2023-04-28T02:22:02;99470.25;;;8.67;100.00
71195;BME280;58908;51.426;7.714;2023-04-28T02:24:28;99462.44;;;8.65;100.00
71195;BME280;58908;51.426;7.714;2023-04-28T02:26:55;99462.53;;;8.64;100.00
71195;BME280;58908;51.426;7.714;2023-04-28T02:29:22;99462.38;;;8.67;100.00
71195;BME280;58908;51.426;7.714;2023-04-28T02:31:49;99464.06;;;8.68;100.00
71195;BME280;58908;51.426;7.714;2023-04-28T02:34:16;99454.47;;;8.67;100.00
71195;BME280;58908;51.426;7.714;2023-04-28T02:36:43;99464.22;;;8.65;100.00
71195;BME280;58908;51.426;7.714;2023-04-28T02:39:09;99466.94;;;8.63;100.00
71195;BME280;58908;51.426;7.714;2023-04-28T02:41:35;99468.72;;;8.63;100.00
71195;BME280;58908;51.426;7.714;2023-04-28T02:44:01;99466.34;;;8.58;100.00
71195;BME280;58908;51.426;7.714;2023-04-28T02:46:28;99465.16;;;8.64;100.00
71195;BME280;58908;51.426;7.714;2023-04-28T02:48:54;99463.53;;;8.61;100.00
71195;BME280;58908;51.426;7.714;2023-04-28T02:51:22;99465.59;;;8.56;100.00
71195;BME280;58908;51.426;7.714;2023-04-28T02:53:48;99459.53;;;8.54;100.00
71195;BME280;58908;51.426;7.714;2023-04-28T02:56:14;99453.75;;;8.48;100.00
71195;BME280;58908;51.426;7.714;2023-04-28T02:58:41;99457.66;;;8.41;100.00
71195;BME280;58908;51.426;7.714;2023-04-28T03:01:07;99449.31;;;8.33;100.00
71195;BME280;58908;51.426;7.714;2023-04-28T03:03:33;99450.19;;;8.33;100.00
71195;BME280;58908;51.426;7.714;2023-04-28T03:06:00;99462.53;;;8.31;100.00
71195;BME280;58908;51.426;7.714;2023-04-28T03:08:27;99461.78;;;8.29;100.00
71195;BME280;58908;51.426;7.714;2023-04-28T03:10:53;99456.69;;;8.26;100.00
71195;BME280;58908;51.426;7.714;2023-04-28T03:13:20;99443.63;;;8.25;100.00
71195;BME280;58908;51.426;7.714;2023-04-28T03:15:46;99438.28;;;8.26;100.00
71195;BME280;58908;51.426;7.714;2023-04-28T03:18:13;99442.84;;;8.23;100.00
71195;BME280;58908;51.426;7.714;2023-04-28T03:20:39;99436.66;;;8.24;100.00
71195;BME280;58908;51.426;7.714;2023-04-28T03:23:05;99435.72;;;8.25;100.00
71195;BME280;58908;51.426;7.714;2023-04-28T03:25:33;99434.31;;;8.35;100.00
71195;BME280;58908;51.426;7.714;2023-04-28T03:27:59;99439.81;;;8.30;100.00
71195;BME280;58908;51.426;7.714;2023-04-28T03:30:26;99443.38;;;8.29;100.00
71195;BME280;58908;51.426;7.714;2023-04-28T03:32:52;99450.56;;;8.26;100.00
71195;BME280;58908;51.426;7.714;2023-04-28T03:35:18;99441.31;;;8.19;100.00
71195;BME280;58908;51.426;7.714;2023-04-28T03:37:44;99434.47;;;8.15;100.00
71195;BME280;58908;51.426;7.714;2023-04-28T03:40:11;99435.34;;;8.15;100.00
71195;BME280;58908;51.426;7.714;2023-04-28T03:42:38;99439.75;;;8.15;100.00
71195;BME280;58908;51.426;7.714;2023-04-28T03:45:05;99442.28;;;8.16;100.00
71195;BME280;58908;51.426;7.714;2023-04-28T03:47:31;99439.97;;;8.10;100.00
71195;BME280;58908;51.426;7.714;2023-04-28T03:49:58;99432.50;;;8.20;100.00
71195;BME280;58908;51.426;7.714;2023-04-28T03:52:24;99437.59;;;8.23;100.00
71195;BME280;58908;51.426;7.714;2023-04-28T03:54:51;99436.91;;;8.19;100.00
71195;BME280;58908;51.426;7.714;2023-04-28T03:57:17;99429.03;;;8.19;100.00
71195;BME280;58908;51.426;7.714;2023-04-28T03:59:45;99425.41;;;8.22;100.00
71195;BME280;58908;51.426;7.714;2023-04-28T04:02:11;99421.66;;;8.26;100.00
71195;BME280;58908;51.426;7.714;2023-04-28T04:04:37;99421.84;;;8.23;100.00
71195;BME280;58908;51.426;7.714;2023-04-28T04:07:04;99416.41;;;8.26;100.00
71195;BME280;58908;51.426;7.714;2023-04-28T04:09:30;99415.22;;;8.31;100.00
71195;BME280;58908;51.426;7.714;2023-04-28T04:11:56;99406.53;;;8.31;100.00
71195;BME280;58908;51.426;7.714;2023-04-28T04:14:23;99408.22;;;8.32;100.00
71195;BME280;58908;51.426;7.714;2023-04-28T04:16:50;99401.28;;;8.31;100.00
71195;BME280;58908;51.426;7.714;2023-04-28T04:19:17;99405.50;;;8.33;100.00
71195;BME280;58908;51.426;7.714;2023-04-28T04:21:43;99401.72;;;8.39;100.00
71195;BME280;58908;51.426;7.714;2023-04-28T04:24:09;99398.53;;;8.32;100.00
71195;BME280;58908;51.426;7.714;2023-04-28T04:26:35;99394.22;;;8.31;100.00
71195;BME280;58908;51.426;7.714;2023-04-28T04:29:02;99396.94;;;8.30;100.00
71195;BME280;58908;51.426;7.714;2023-04-28T04:31:28;99389.06;;;8.30;100.00
71195;BME280;58908;51.426;7.714;2023-04-28T04:33:55;99370.50;;;8.33;100.00
71195;BME280;58908;51.426;7.714;2023-04-28T04:36:22;99378.19;;;8.36;100.00
71195;BME280;58908;51.426;7.714;2023-04-28T04:38:48;99377.19;;;8.38;100.00
71195;BME280;58908;51.426;7.714;2023-04-28T04:41:14;99367.53;;;8.39;100.00
71195;BME280;58908;51.426;7.714;2023-04-28T04:43:40;99371.19;;;8.36;100.00
71195;BME280;58908;51.426;7.714;2023-04-28T04:46:07;99370.00;;;8.42;100.00
71195;BME280;58908;51.426;7.714;2023-04-28T04:48:33;99368.19;;;8.42;100.00
71195;BME280;58908;51.426;7.714;2023-04-28T04:51:01;99360.81;;;8.49;100.00
71195;BME280;58908;51.426;7.714;2023-04-28T04:53:27;99354.31;;;8.56;100.00
71195;BME280;58908;51.426;7.714;2023-04-28T04:55:53;99351.19;;;8.65;100.00
71195;BME280;58908;51.426;7.714;2023-04-28T04:58:20;99349.56;;;8.62;100.00
71195;BME280;58908;51.426;7.714;2023-04-28T05:00:46;99342.78;;;8.74;100.00
71195;BME280;58908;51.426;7.714;2023-04-28T05:03:12;99335.66;;;8.76;100.00
71195;BME280;58908;51.426;7.714;2023-04-28T05:05:38;99329.38;;;8.78;100.00
71195;BME280;58908;51.426;7.714;2023-04-28T05:08:06;99321.50;;;8.78;100.00
71195;BME280;58908;51.426;7.714;2023-04-28T05:10:33;99333.59;;;8.81;100.00
71195;BME280;58908;51.426;7.714;2023-04-28T05:12:59;99350.50;;;8.77;100.00
71195;BME280;58908;51.426;7.714;2023-04-28T05:15:25;99347.09;;;8.75;100.00
71195;BME280;58908;51.426;7.714;2023-04-28T05:17:51;99354.31;;;8.71;100.00
71195;BME280;58908;51.426;7.714;2023-04-28T05:20:18;99355.81;;;8.75;100.00
71195;BME280;58908;51.426;7.714;2023-04-28T05:22:44;99362.88;;;8.75;100.00
71195;BME280;58908;51.426;7.714;2023-04-28T05:25:12;99363.81;;;8.74;100.00
71195;BME280;58908;51.426;7.714;2023-04-28T05:27:38;99365.66;;;8.72;100.00
71195;BME280;58908;51.426;7.714;2023-04-28T05:30:05;99359.31;;;8.76;100.00
71195;BME280;58908;51.426;7.714;2023-04-28T05:32:32;99356.75;;;8.74;100.00
71195;BME280;58908;51.426;7.714;2023-04-28T05:34:59;99358.31;;;8.78;100.00
71195;BME280;58908;51.426;7.714;2023-04-28T05:37:25;99346.75;;;8.81;100.00
71195;BME280;58908;51.426;7.714;2023-04-28T05:39:51;99352.88;;;8.81;100.00
71195;BME280;58908;51.426;7.714;2023-04-28T05:42:19;99345.06;;;8.80;100.00
71195;BME280;58908;51.426;7.714;2023-04-28T05:44:45;99352.00;;;8.81;100.00
71195;BME280;58908;51.426;7.714;2023-04-28T05:47:11;99361.94;;;8.76;100.00
71195;BME280;58908;51.426;7.714;2023-04-28T05:49:38;99369.84;;;8.76;100.00
71195;BME280;58908;51.426;7.714;2023-04-28T05:52:04;99367.22;;;8.76;100.00
71195;BME280;58908;51.426;7.714;2023-04-28T05:54:30;99367.28;;;8.74;100.00
71195;BME280;58908;51.426;7.714;2023-04-28T05:56:58;99364.41;;;8.79;100.00
71195;BME280;58908;51.426;7.714;2023-04-28T05:59:26;99364.47;;;8.77;100.00
71195;BME280;58908;51.426;7.714;2023-04-28T06:01:54;99363.56;;;8.78;100.00
71195;BME280;58908;51.426;7.714;2023-04-28T06:04:20;99356.69;;;8.76;100.00
71195;BME280;58908;51.426;7.714;2023-04-28T06:06:47;99358.56;;;8.74;100.00
71195;BME280;58908;51.426;7.714;2023-04-28T06:09:13;99353.31;;;8.74;100.00
71195;BME280;58908;51.426;7.714;2023-04-28T06:11:39;99343.63;;;8.74;100.00
71195;BME280;58908;51.426;7.714;2023-04-28T06:14:05;99336.59;;;8.75;100.00
71195;BME280;58908;51.426;7.714;2023-04-28T06:16:33;99329.53;;;8.75;100.00
71195;BME280;58908;51.426;7.714;2023-04-28T06:18:59;99325.13;;;8.76;100.00
71195;BME280;58908;51.426;7.714;2023-04-28T06:21:26;99315.94;;;8.83;100.00
71195;BME280;58908;51.426;7.714;2023-04-28T06:23:52;99304.22;;;8.88;100.00
71195;BME280;58908;51.426;7.714;2023-04-28T06:26:18;99292.69;;;8.91;100.00
71195;BME280;58908;51.426;7.714;2023-04-28T06:28:45;99296.75;;;8.96;100.00
71195;BME280;58908;51.426;7.714;2023-04-28T06:31:11;99300.84;;;9.16;100.00
71195;BME280;58908;51.426;7.714;2023-04-28T06:33:39;99304.53;;;9.13;100.00
71195;BME280;58908;51.426;7.714;2023-04-28T06:36:05;99304.41;;;9.15;100.00
71195;BME280;58908;51.426;7.714;2023-04-28T06:38:32;99301.50;;;9.19;100.00
71195;BME280;58908;51.426;7.714;2023-04-28T06:40:58;99295.16;;;9.23;100.00
71195;BME280;58908;51.426;7.714;2023-04-28T06:43:25;99284.47;;;9.40;100.00
71195;BME280;58908;51.426;7.714;2023-04-28T06:45:51;99284.31;;;9.57;100.00
71195;BME280;58908;51.426;7.714;2023-04-28T06:48:18;99280.44;;;9.90;100.00
71195;BME280;58908;51.426;7.714;2023-04-28T06:50:45;99282.69;;;10.24;100.00
71195;BME280;58908;51.426;7.714;2023-04-28T06:53:12;99274.72;;;10.12;100.00
71195;BME280;58908;51.426;7.714;2023-04-28T06:55:38;99284.66;;;10.21;100.00
71195;BME280;58908;51.426;7.714;2023-04-28T06:58:04;99281.28;;;10.19;100.00
71195;BME280;58908;51.426;7.714;2023-04-28T07:00:30;99275.19;;;10.18;100.00
71195;BME280;58908;51.426;7.714;2023-04-28T07:02:57;99276.13;;;10.17;100.00
71195;BME280;58908;51.426;7.714;2023-04-28T07:05:23;99273.09;;;10.23;100.00
71195;BME280;58908;51.426;7.714;2023-04-28T07:07:51;99267.59;;;10.40;100.00
71195;BME280;58908;51.426;7.714;2023-04-28T07:10:17;99262.34;;;10.67;100.00
71195;BME280;58908;51.426;7.714;2023-04-28T07:12:44;99262.13;;;10.70;100.00
71195;BME280;58908;51.426;7.714;2023-04-28T07:15:10;99260.31;;;10.58;100.00
71195;BME280;58908;51.426;7.714;2023-04-28T07:17:36;99255.44;;;10.91;100.00
71195;BME280;58908;51.426;7.714;2023-04-28T07:20:03;99256.84;;;10.96;100.00
71195;BME280;58908;51.426;7.714;2023-04-28T07:22:29;99263.91;;;10.69;100.00
71195;BME280;58908;51.426;7.714;2023-04-28T07:24:57;99268.09;;;10.86;100.00
71195;BME280;58908;51.426;7.714;2023-04-28T07:27:23;99265.16;;;10.90;100.00
71195;BME280;58908;51.426;7.714;2023-04-28T07:29:50;99264.72;;;11.23;100.00
71195;BME280;58908;51.426;7.714;2023-04-28T07:32:16;99265.13;;;11.29;100.00
71195;BME280;58908;51.426;7.714;2023-04-28T07:34:42;99267.97;;;11.26;100.00
71195;BME280;58908;51.426;7.714;2023-04-28T07:37:09;99269.03;;;11.36;100.00
71195;BME280;58908;51.426;7.714;2023-04-28T07:39:36;99261.53;;;11.43;100.00
71195;BME280;58908;51.426;7.714;2023-04-28T07:42:04;99252.88;;;11.53;100.00
71195;BME280;58908;51.426;7.714;2023-04-28T07:44:30;99254.25;;;11.46;100.00
71195;BME280;58908;51.426;7.714;2023-04-28T07:46:57;99248.06;;;11.60;100.00
71195;BME280;58908;51.426;7.714;2023-04-28T07:49:25;99252.78;;;11.42;100.00
71195;BME280;58908;51.426;7.714;2023-04-28T07:51:51;99255.75;;;11.63;100.00
71195;BME280;58908;51.426;7.714;2023-04-28T07:54:19;99259.31;;;11.49;100.00
71195;BME280;58908;51.426;7.714;2023-04-28T07:56:45;99253.34;;;11.72;100.00
71195;BME280;58908;51.426;7.714;2023-04-28T07:59:13;99256.06;;;11.95;100.00
71195;BME280;58908;51.426;7.714;2023-04-28T08:01:41;99254.47;;;11.93;100.00
71195;BME280;58908;51.426;7.714;2023-04-28T08:04:07;99249.31;;;12.27;100.00
71195;BME280;58908;51.426;7.714;2023-04-28T08:06:35;99240.91;;;12.46;100.00
71195;BME280;58908;51.426;7.714;2023-04-28T08:09:01;99249.81;;;12.32;100.00
71195;BME280;58908;51.426;7.714;2023-04-28T08:11:28;99248.84;;;12.69;100.00
71195;BME280;58908;51.426;7.714;2023-04-28T08:13:54;99244.75;;;13.23;100.00
71195;BME280;58908;51.426;7.714;2023-04-28T08:16:26;99252.19;;;13.18;100.00
71195;BME280;58908;51.426;7.714;2023-04-28T08:18:52;99256.44;;;12.97;100.00
71195;BME280;58908;51.426;7.714;2023-04-28T08:21:19;99251.09;;;13.10;100.00
71195;BME280;58908;51.426;7.714;2023-04-28T08:23:45;99255.50;;;14.22;100.00
71195;BME280;58908;51.426;7.714;2023-04-28T08:26:11;99258.56;;;13.72;100.00
71195;BME280;58908;51.426;7.714;2023-04-28T08:28:37;99255.41;;;13.45;100.00
71195;BME280;58908;51.426;7.714;2023-04-28T08:31:04;99260.78;;;13.33;100.00
71195;BME280;58908;51.426;7.714;2023-04-28T08:33:32;99264.03;;;13.25;100.00
71195;BME280;58908;51.426;7.714;2023-04-28T08:35:58;99255.31;;;13.80;100.00
71195;BME280;58908;51.426;7.714;2023-04-28T08:38:27;99258.59;;;14.38;100.00
71195;BME280;58908;51.426;7.714;2023-04-28T08:40:53;99259.06;;;14.85;100.00
71195;BME280;58908;51.426;7.714;2023-04-28T08:43:20;99250.56;;;15.34;100.00
71195;BME280;58908;51.426;7.714;2023-04-28T08:45:46;99253.34;;;15.21;100.00
71195;BME280;58908;51.426;7.714;2023-04-28T08:48:16;99259.97;;;15.06;100.00
71195;BME280;58908;51.426;7.714;2023-04-28T08:50:47;99269.75;;;15.58;100.00
71195;BME280;58908;51.426;7.714;2023-04-28T08:53:14;99258.19;;;15.98;100.00
71195;BME280;58908;51.426;7.714;2023-04-28T08:55:42;99259.94;;;15.58;100.00
71195;BME280;58908;51.426;7.714;2023-04-28T08:58:09;99261.28;;;15.53;100.00
71195;BME280;58908;51.426;7.714;2023-04-28T09:00:35;99252.63;;;15.30;100.00
71195;BME280;58908;51.426;7.714;2023-04-28T09:03:02;99264.78;;;14.70;100.00
71195;BME280;58908;51.426;7.714;2023-04-28T09:05:29;99266.44;;;14.40;100.00
71195;BME280;58908;51.426;7.714;2023-04-28T09:07:57;99261.94;;;14.40;100.00
71195;BME280;58908;51.426;7.714;2023-04-28T09:10:23;99257.53;;;14.30;100.00
71195;BME280;58908;51.426;7.714;2023-04-28T09:12:51;99253.88;;;14.42;100.00
71195;BME280;58908;51.426;7.714;2023-04-28T09:15:29;99245.19;;;14.50;100.00
71195;BME280;58908;51.426;7.714;2023-04-28T09:17:56;99240.72;;;14.82;100.00
71195;BME280;58908;51.426;7.714;2023-04-28T09:20:23;99243.44;;;15.23;100.00
71195;BME280;58908;51.426;7.714;2023-04-28T09:22:51;99240.00;;;15.12;100.00
71195;BME280;58908;51.426;7.714;2023-04-28T09:25:19;99236.03;;;15.38;100.00
71195;BME280;58908;51.426;7.714;2023-04-28T09:27:46;99242.13;;;15.18;100.00
71195;BME280;58908;51.426;7.714;2023-04-28T09:30:13;99248.16;;;15.51;100.00
71195;BME280;58908;51.426;7.714;2023-04-28T09:32:40;99235.75;;;15.61;100.00
71195;BME280;58908;51.426;7.714;2023-04-28T09:35:07;99236.22;;;15.46;100.00
71195;BME280;58908;51.426;7.714;2023-04-28T09:37:33;99232.41;;;16.29;100.00
71195;BME280;58908;51.426;7.714;2023-04-28T09:40:04;99221.31;;;16.82;100.00
71195;BME280;58908;51.426;7.714;2023-04-28T09:42:34;99235.75;;;16.21;100.00
71195;BME280;58908;51.426;7.714;2023-04-28T09:45:01;99228.63;;;16.31;100.00
71195;BME280;58908;51.426;7.714;2023-04-28T09:47:27;99223.91;;;15.75;100.00
71195;BME280;58908;51.426;7.714;2023-04-28T09:49:55;99223.25;;;15.52;100.00
71195;BME280;58908;51.426;7.714;2023-04-28T09:52:21;99222.53;;;15.30;100.00
71195;BME280;58908;51.426;7.714;2023-04-28T09:54:48;99224.53;;;15.37;100.00
71195;BME280;58908;51.426;7.714;2023-04-28T09:57:15;99224.22;;;15.31;100.00
71195;BME280;58908;51.426;7.714;2023-04-28T09:59:45;99221.50;;;15.62;100.00
71195;BME280;58908;51.426;7.714;2023-04-28T10:02:13;99218.50;;;16.16;100.00
71195;BME280;58908;51.426;7.714;2023-04-28T10:04:39;99224.69;;;16.26;100.00
71195;BME280;58908;51.426;7.714;2023-04-28T10:07:06;99226.56;;;16.05;100.00
71195;BME280;58908;51.426;7.714;2023-04-28T10:09:33;99225.50;;;15.87;100.00
71195;BME280;58908;51.426;7.714;2023-04-28T10:12:00;99226.16;;;15.70;100.00
71195;BME280;58908;51.426;7.714;2023-04-28T10:14:27;99221.03;;;16.66;100.00
71195;BME280;58908;51.426;7.714;2023-04-28T10:16:55;99214.72;;;16.86;100.00
71195;BME280;58908;51.426;7.714;2023-04-28T10:19:23;99210.66;;;17.20;100.00
71195;BME280;58908;51.426;7.714;2023-04-28T10:21:52;99205.63;;;17.17;100.00
71195;BME280;58908;51.426;7.714;2023-04-28T10:24:22;99208.13;;;17.18;100.00
71195;BME280;58908;51.426;7.714;2023-04-28T10:27:01;99217.25;;;16.78;100.00
71195;BME280;58908;51.426;7.714;2023-04-28T10:29:29;99213.81;;;16.38;100.00
71195;BME280;58908;51.426;7.714;2023-04-28T10:34:42;99227.06;;;15.39;100.00
71195;BME280;58908;51.426;7.714;2023-04-28T10:37:08;99211.88;;;14.89;100.00
71195;BME280;58908;51.426;7.714;2023-04-28T10:39:35;99227.47;;;14.71;100.00
71195;BME280;58908;51.426;7.714;2023-04-28T10:42:01;99218.34;;;14.64;100.00
71195;BME280;58908;51.426;7.714;2023-04-28T10:44:40;99224.81;;;14.71;100.00
71195;BME280;58908;51.426;7.714;2023-04-28T10:47:07;99218.66;;;14.82;100.00
71195;BME280;58908;51.426;7.714;2023-04-28T10:55:27;99210.19;;;15.49;100.00
71195;BME280;58908;51.426;7.714;2023-04-28T11:00:41;99197.38;;;16.24;100.00
71195;BME280;58908;51.426;7.714;2023-04-28T11:03:09;99201.72;;;16.34;100.00
71195;BME280;58908;51.426;7.714;2023-04-28T11:08:41;99200.97;;;16.13;100.00
71195;BME280;58908;51.426;7.714;2023-04-28T11:11:15;99192.16;;;15.73;100.00
71195;BME280;58908;51.426;7.714;2023-04-28T11:13:42;99197.88;;;15.48;100.00
71195;BME280;58908;51.426;7.714;2023-04-28T11:16:11;99196.75;;;15.41;100.00
71195;BME280;58908;51.426;7.714;2023-04-28T11:18:47;99196.28;;;15.36;100.00
71195;BME280;58908;51.426;7.714;2023-04-28T11:21:13;99194.53;;;15.46;100.00
71195;BME280;58908;51.426;7.714;2023-04-28T11:23:40;99196.09;;;15.49;100.00
71195;BME280;58908;51.426;7.714;2023-04-28T11:26:09;99193.31;;;15.50;100.00
71195;BME280;58908;51.426;7.714;2023-04-28T11:28:37;99195.50;;;15.25;100.00
71195;BME280;58908;51.426;7.714;2023-04-28T11:31:11;99190.03;;;15.26;100.00
71195;BME280;58908;51.426;7.714;2023-04-28T11:33:38;99196.88;;;15.70;100.00
71195;BME280;58908;51.426;7.714;2023-04-28T11:36:04;99192.88;;;15.85;100.00
71195;BME280;58908;51.426;7.714;2023-04-28T11:38:41;99192.28;;;15.72;100.00
71195;BME280;58908;51.426;7.714;2023-04-28T11:41:09;99206.50;;;15.61;100.00
71195;BME280;58908;51.426;7.714;2023-04-28T11:43:37;99210.97;;;15.61;100.00
71195;BME280;58908;51.426;7.714;2023-04-28T11:46:06;99209.50;;;15.47;100.00
71195;BME280;58908;51.426;7.714;2023-04-28T11:48:32;99205.47;;;15.53;100.00
71195;BME280;58908;51.426;7.714;2023-04-28T11:50:58;99214.16;;;15.55;100.00
71195;BME280;58908;51.426;7.714;2023-04-28T11:53:39;99208.28;;;15.31;100.00
71195;BME280;58908;51.426;7.714;2023-04-28T11:56:05;99214.97;;;15.14;100.00
71195;BME280;58908;51.426;7.714;2023-04-28T11:58:33;99217.78;;;15.13;100.00
71195;BME280;58908;51.426;7.714;2023-04-28T12:01:06;99210.38;;;14.96;100.00
71195;BME280;58908;51.426;7.714;2023-04-28T12:03:40;99220.38;;;15.24;100.00
71195;BME280;58908;51.426;7.714;2023-04-28T12:06:07;99219.09;;;15.18;100.00
71195;BME280;58908;51.426;7.714;2023-04-28T12:08:33;99216.16;;;15.01;100.00
71195;BME280;58908;51.426;7.714;2023-04-28T12:11:06;99222.81;;;14.95;100.00
71195;BME280;58908;51.426;7.714;2023-04-28T12:13:33;99210.72;;;15.23;100.00
71195;BME280;58908;51.426;7.714;2023-04-28T12:16:00;99220.75;;;15.19;100.00
71195;BME280;58908;51.426;7.714;2023-04-28T12:18:29;99216.00;;;15.34;100.00
71195;BME280;58908;51.426;7.714;2023-04-28T12:20:55;99217.34;;;15.28;100.00
71195;BME280;58908;51.426;7.714;2023-04-28T12:23:27;99208.16;;;15.32;100.00
71195;BME280;58908;51.426;7.714;2023-04-28T12:25:56;99209.75;;;15.44;100.00
71195;BME280;58908;51.426;7.714;2023-04-28T12:28:23;99214.97;;;15.46;100.00
71195;BME280;58908;51.426;7.714;2023-04-28T12:30:49;99211.69;;;15.63;100.00
71195;BME280;58908;51.426;7.714;2023-04-28T12:33:22;99220.31;;;15.55;100.00
71195;BME280;58908;51.426;7.714;2023-04-28T12:35:50;99218.28;;;15.68;100.00
71195;BME280;58908;51.426;7.714;2023-04-28T12:38:18;99220.59;;;15.82;100.00
71195;BME280;58908;51.426;7.714;2023-04-28T12:40:45;99226.34;;;15.57;100.00
71195;BME280;58908;51.426;7.714;2023-04-28T12:43:11;99219.22;;;15.37;100.00
71195;BME280;58908;51.426;7.714;2023-04-28T12:45:38;99221.16;;;15.35;100.00
71195;BME280;58908;51.426;7.714;2023-04-28T12:48:08;99228.34;;;15.95;100.00
71195;BME280;58908;51.426;7.714;2023-04-28T12:50:34;99227.97;;;16.09;100.00
71195;BME280;58908;51.426;7.714;2023-04-28T12:53:07;99220.06;;;16.28;100.00
71195;BME280;58908;51.426;7.714;2023-04-28T12:55:34;99224.34;;;16.49;100.00
71195;BME280;58908;51.426;7.714;2023-04-28T12:58:00;99226.59;;;16.54;100.00
71195;BME280;58908;51.426;7.714;2023-04-28T13:00:26;99223.53;;;16.19;100.00
71195;BME280;58908;51.426;7.714;2023-04-28T13:02:52;99222.66;;;16.39;100.00
71195;BME280;58908;51.426;7.714;2023-04-28T13:05:19;99222.53;;;16.50;100.00
71195;BME280;58908;51.426;7.714;2023-04-28T13:07:45;99217.09;;;16.61;100.00